Central City, Kentucky
Current Conditions -  °F | °C
As of 1:35 AM on Sunday 23 Nov 2014 (Local Time) from K2I0 Reporting Station
Scattered Clouds Scattered Clouds  
Wind Chill: 55°   Ceiling: Unl
Heat Index: 55°   Visibility: 10mi
Dew Point: 43°   Wind: 7mph
Humidity: 64%   Direction: 170°S
Pressure: 29.98"   Gusts: NA
Location:  37.29°N, 87.12°W
Report Text: K2I0 230735Z AUTO 17006KT 10SM SCT035 13/06 A2998 RMK AO2 T01270061
Loading
Personal Weather Stations






























Interactive Weather Map New forecast layout! Learn more

10-Day Weather Forecast

Advertisements
Track Severe Weather on mobile